sensor_id;sensor_type;location;lat;lon;timestamp;P1;durP1;ratioP1;P2;durP2;ratioP2
14611;SDS011;7392;52.078;11.650;2023-09-12T00:02:37;2.80;;;1.80;;
14611;SDS011;7392;52.078;11.650;2023-09-12T00:05:05;2.40;;;1.73;;
14611;SDS011;7392;52.078;11.650;2023-09-12T00:07:34;1.70;;;1.40;;
14611;SDS011;7392;52.078;11.650;2023-09-12T00:10:04;2.23;;;1.70;;
14611;SDS011;7392;52.078;11.650;2023-09-12T00:12:32;1.80;;;1.67;;
14611;SDS011;7392;52.078;11.650;2023-09-12T00:15:00;2.07;;;1.67;;
14611;SDS011;7392;52.078;11.650;2023-09-12T00:17:30;1.70;;;1.57;;
14611;SDS011;7392;52.078;11.650;2023-09-12T00:19:58;2.23;;;1.90;;
14611;SDS011;7392;52.078;11.650;2023-09-12T00:22:26;1.77;;;1.50;;
14611;SDS011;7392;52.078;11.650;2023-09-12T00:24:54;3.10;;;1.90;;
14611;SDS011;7392;52.078;11.650;2023-09-12T00:27:23;2.90;;;1.60;;
14611;SDS011;7392;52.078;11.650;2023-09-12T00:29:51;3.27;;;2.10;;
14611;SDS011;7392;52.078;11.650;2023-09-12T00:32:18;2.87;;;1.80;;
14611;SDS011;7392;52.078;11.650;2023-09-12T00:34:46;2.03;;;1.73;;
14611;SDS011;7392;52.078;11.650;2023-09-12T00:37:14;1.57;;;1.47;;
14611;SDS011;7392;52.078;11.650;2023-09-12T00:39:42;3.00;;;2.30;;
14611;SDS011;7392;52.078;11.650;2023-09-12T00:42:10;2.43;;;2.13;;
14611;SDS011;7392;52.078;11.650;2023-09-12T00:44:39;2.83;;;2.10;;
14611;SDS011;7392;52.078;11.650;2023-09-12T00:47:07;1.70;;;1.60;;
14611;SDS011;7392;52.078;11.650;2023-09-12T00:49:37;2.10;;;1.90;;
14611;SDS011;7392;52.078;11.650;2023-09-12T00:52:06;1.90;;;1.77;;
14611;SDS011;7392;52.078;11.650;2023-09-12T00:54:35;2.07;;;1.87;;
14611;SDS011;7392;52.078;11.650;2023-09-12T00:57:03;2.33;;;1.80;;
14611;SDS011;7392;52.078;11.650;2023-09-12T00:59:31;2.50;;;2.00;;
14611;SDS011;7392;52.078;11.650;2023-09-12T01:02:01;1.90;;;1.80;;
14611;SDS011;7392;52.078;11.650;2023-09-12T01:04:29;1.93;;;1.80;;
14611;SDS011;7392;52.078;11.650;2023-09-12T01:07:02;1.70;;;1.60;;
14611;SDS011;7392;52.078;11.650;2023-09-12T01:09:30;3.53;;;2.23;;
14611;SDS011;7392;52.078;11.650;2023-09-12T01:11:58;2.67;;;2.30;;
14611;SDS011;7392;52.078;11.650;2023-09-12T01:14:27;3.47;;;2.30;;
14611;SDS011;7392;52.078;11.650;2023-09-12T01:16:58;2.80;;;2.30;;
14611;SDS011;7392;52.078;11.650;2023-09-12T01:19:28;2.10;;;1.90;;
14611;SDS011;7392;52.078;11.650;2023-09-12T01:22:03;2.30;;;2.10;;
14611;SDS011;7392;52.078;11.650;2023-09-12T01:28:03;2.20;;;1.93;;
14611;SDS011;7392;52.078;11.650;2023-09-12T01:30:33;2.50;;;2.30;;
14611;SDS011;7392;52.078;11.650;2023-09-12T01:33:03;2.30;;;2.10;;
14611;SDS011;7392;52.078;11.650;2023-09-12T01:35:31;2.10;;;1.90;;
14611;SDS011;7392;52.078;11.650;2023-09-12T01:37:59;1.90;;;1.80;;
14611;SDS011;7392;52.078;11.650;2023-09-12T01:40:30;2.03;;;1.83;;
14611;SDS011;7392;52.078;11.650;2023-09-12T01:43:03;2.27;;;2.07;;
14611;SDS011;7392;52.078;11.650;2023-09-12T01:45:32;2.00;;;1.90;;
14611;SDS011;7392;52.078;11.650;2023-09-12T01:48:00;2.10;;;1.90;;
14611;SDS011;7392;52.078;11.650;2023-09-12T01:50:30;2.27;;;2.03;;
14611;SDS011;7392;52.078;11.650;2023-09-12T01:52:58;2.23;;;2.03;;
14611;SDS011;7392;52.078;11.650;2023-09-12T01:55:28;2.70;;;2.23;;
14611;SDS011;7392;52.078;11.650;2023-09-12T01:57:56;2.33;;;2.10;;
14611;SDS011;7392;52.078;11.650;2023-09-12T02:00:25;3.63;;;1.97;;
14611;SDS011;7392;52.078;11.650;2023-09-12T02:02:53;2.65;;;2.00;;
14611;SDS011;7392;52.078;11.650;2023-09-12T02:05:22;2.20;;;2.00;;
14611;SDS011;7392;52.078;11.650;2023-09-12T02:07:50;2.63;;;2.13;;
14611;SDS011;7392;52.078;11.650;2023-09-12T02:10:17;1.97;;;1.80;;
14611;SDS011;7392;52.078;11.650;2023-09-12T02:12:45;2.13;;;1.90;;
14611;SDS011;7392;52.078;11.650;2023-09-12T02:15:13;2.30;;;1.90;;
14611;SDS011;7392;52.078;11.650;2023-09-12T02:17:43;2.10;;;1.90;;
14611;SDS011;7392;52.078;11.650;2023-09-12T02:20:11;2.20;;;2.00;;
14611;SDS011;7392;52.078;11.650;2023-09-12T02:22:39;2.27;;;2.07;;
14611;SDS011;7392;52.078;11.650;2023-09-12T02:25:07;2.43;;;2.23;;
14611;SDS011;7392;52.078;11.650;2023-09-12T02:27:35;2.93;;;2.63;;
14611;SDS011;7392;52.078;11.650;2023-09-12T02:30:04;3.37;;;3.07;;
14611;SDS011;7392;52.078;11.650;2023-09-12T02:32:32;2.90;;;2.60;;
14611;SDS011;7392;52.078;11.650;2023-09-12T02:35:02;3.30;;;3.00;;
14611;SDS011;7392;52.078;11.650;2023-09-12T02:37:30;3.70;;;2.60;;
14611;SDS011;7392;52.078;11.650;2023-09-12T02:39:58;3.07;;;2.77;;
14611;SDS011;7392;52.078;11.650;2023-09-12T02:42:26;2.70;;;2.50;;
14611;SDS011;7392;52.078;11.650;2023-09-12T02:44:54;2.50;;;2.30;;
14611;SDS011;7392;52.078;11.650;2023-09-12T02:47:22;2.63;;;2.43;;
14611;SDS011;7392;52.078;11.650;2023-09-12T02:49:50;2.37;;;2.17;;
14611;SDS011;7392;52.078;11.650;2023-09-12T02:52:19;2.83;;;2.37;;
14611;SDS011;7392;52.078;11.650;2023-09-12T02:54:47;2.47;;;2.27;;
14611;SDS011;7392;52.078;11.650;2023-09-12T02:57:15;2.73;;;2.53;;
14611;SDS011;7392;52.078;11.650;2023-09-12T02:59:43;2.80;;;2.20;;
14611;SDS011;7392;52.078;11.650;2023-09-12T03:02:11;2.60;;;2.33;;
14611;SDS011;7392;52.078;11.650;2023-09-12T03:04:39;2.27;;;2.07;;
14611;SDS011;7392;52.078;11.650;2023-09-12T03:07:07;2.50;;;2.30;;
14611;SDS011;7392;52.078;11.650;2023-09-12T03:09:36;2.30;;;2.10;;
14611;SDS011;7392;52.078;11.650;2023-09-12T03:12:05;2.93;;;2.30;;
14611;SDS011;7392;52.078;11.650;2023-09-12T03:14:34;2.63;;;2.30;;
14611;SDS011;7392;52.078;11.650;2023-09-12T03:17:02;2.60;;;2.40;;
14611;SDS011;7392;52.078;11.650;2023-09-12T03:19:31;2.77;;;2.20;;
14611;SDS011;7392;52.078;11.650;2023-09-12T03:21:59;2.53;;;2.30;;
14611;SDS011;7392;52.078;11.650;2023-09-12T03:24:27;2.33;;;2.13;;
14611;SDS011;7392;52.078;11.650;2023-09-12T03:26:57;2.30;;;2.17;;
14611;SDS011;7392;52.078;11.650;2023-09-12T03:29:25;3.07;;;2.47;;
14611;SDS011;7392;52.078;11.650;2023-09-12T03:31:53;3.27;;;2.97;;
14611;SDS011;7392;52.078;11.650;2023-09-12T03:34:21;2.67;;;2.47;;
14611;SDS011;7392;52.078;11.650;2023-09-12T03:36:49;2.30;;;2.10;;
14611;SDS011;7392;52.078;11.650;2023-09-12T03:39:16;2.60;;;2.40;;
14611;SDS011;7392;52.078;11.650;2023-09-12T03:41:44;2.93;;;2.67;;
14611;SDS011;7392;52.078;11.650;2023-09-12T03:44:14;2.80;;;2.60;;
14611;SDS011;7392;52.078;11.650;2023-09-12T03:46:42;3.20;;;2.50;;
14611;SDS011;7392;52.078;11.650;2023-09-12T03:49:10;2.83;;;2.63;;
14611;SDS011;7392;52.078;11.650;2023-09-12T03:51:39;2.50;;;2.30;;
14611;SDS011;7392;52.078;11.650;2023-09-12T03:54:07;2.50;;;2.30;;
14611;SDS011;7392;52.078;11.650;2023-09-12T03:56:34;2.93;;;2.30;;
14611;SDS011;7392;52.078;11.650;2023-09-12T03:59:02;3.23;;;2.80;;
14611;SDS011;7392;52.078;11.650;2023-09-12T04:01:32;2.73;;;2.50;;
14611;SDS011;7392;52.078;11.650;2023-09-12T04:04:00;3.60;;;3.20;;
14611;SDS011;7392;52.078;11.650;2023-09-12T04:06:30;3.17;;;2.87;;
14611;SDS011;7392;52.078;11.650;2023-09-12T04:08:57;2.70;;;2.50;;
14611;SDS011;7392;52.078;11.650;2023-09-12T04:11:25;2.90;;;2.70;;
14611;SDS011;7392;52.078;11.650;2023-09-12T04:14:11;3.20;;;2.90;;
14611;SDS011;7392;52.078;11.650;2023-09-12T04:16:40;3.30;;;2.90;;
14611;SDS011;7392;52.078;11.650;2023-09-12T04:19:08;3.20;;;2.90;;
14611;SDS011;7392;52.078;11.650;2023-09-12T04:21:37;3.20;;;3.00;;
14611;SDS011;7392;52.078;11.650;2023-09-12T04:24:05;4.13;;;2.73;;
14611;SDS011;7392;52.078;11.650;2023-09-12T04:26:34;4.63;;;3.77;;
14611;SDS011;7392;52.078;11.650;2023-09-12T04:29:02;4.17;;;3.77;;
14611;SDS011;7392;52.078;11.650;2023-09-12T04:31:33;3.93;;;3.63;;
14611;SDS011;7392;52.078;11.650;2023-09-12T04:34:02;3.83;;;3.40;;
14611;SDS011;7392;52.078;11.650;2023-09-12T04:36:30;4.07;;;3.67;;
14611;SDS011;7392;52.078;11.650;2023-09-12T04:38:58;3.80;;;3.50;;
14611;SDS011;7392;52.078;11.650;2023-09-12T04:41:26;3.93;;;3.53;;
14611;SDS011;7392;52.078;11.650;2023-09-12T04:43:54;3.70;;;3.40;;
14611;SDS011;7392;52.078;11.650;2023-09-12T04:46:23;3.23;;;2.97;;
14611;SDS011;7392;52.078;11.650;2023-09-12T04:48:51;2.97;;;2.77;;
14611;SDS011;7392;52.078;11.650;2023-09-12T04:51:20;3.40;;;3.10;;
14611;SDS011;7392;52.078;11.650;2023-09-12T04:53:48;3.10;;;2.87;;
14611;SDS011;7392;52.078;11.650;2023-09-12T04:56:18;4.00;;;3.43;;
14611;SDS011;7392;52.078;11.650;2023-09-12T04:58:46;4.13;;;3.73;;
14611;SDS011;7392;52.078;11.650;2023-09-12T05:01:14;3.60;;;3.30;;
14611;SDS011;7392;52.078;11.650;2023-09-12T05:03:42;3.40;;;3.10;;
14611;SDS011;7392;52.078;11.650;2023-09-12T05:06:11;3.67;;;3.27;;
14611;SDS011;7392;52.078;11.650;2023-09-12T05:08:41;3.30;;;3.10;;
14611;SDS011;7392;52.078;11.650;2023-09-12T05:11:10;3.60;;;3.30;;
14611;SDS011;7392;52.078;11.650;2023-09-12T05:13:38;3.00;;;2.80;;
14611;SDS011;7392;52.078;11.650;2023-09-12T05:16:06;2.70;;;2.50;;
14611;SDS011;7392;52.078;11.650;2023-09-12T05:18:34;4.20;;;2.80;;
14611;SDS011;7392;52.078;11.650;2023-09-12T05:21:02;3.03;;;2.83;;
14611;SDS011;7392;52.078;11.650;2023-09-12T05:23:30;3.03;;;2.67;;
14611;SDS011;7392;52.078;11.650;2023-09-12T05:25:59;3.20;;;2.80;;
14611;SDS011;7392;52.078;11.650;2023-09-12T05:28:28;3.40;;;3.13;;
14611;SDS011;7392;52.078;11.650;2023-09-12T05:30:55;3.10;;;2.80;;
14611;SDS011;7392;52.078;11.650;2023-09-12T05:33:24;3.30;;;3.03;;
14611;SDS011;7392;52.078;11.650;2023-09-12T05:35:52;3.27;;;2.83;;
14611;SDS011;7392;52.078;11.650;2023-09-12T05:38:20;3.60;;;3.30;;
14611;SDS011;7392;52.078;11.650;2023-09-12T05:40:49;3.70;;;3.40;;
14611;SDS011;7392;52.078;11.650;2023-09-12T05:43:19;2.80;;;2.60;;
14611;SDS011;7392;52.078;11.650;2023-09-12T05:45:47;3.67;;;3.37;;
14611;SDS011;7392;52.078;11.650;2023-09-12T05:48:15;3.93;;;3.43;;
14611;SDS011;7392;52.078;11.650;2023-09-12T05:50:42;4.03;;;3.57;;
14611;SDS011;7392;52.078;11.650;2023-09-12T05:53:11;3.93;;;3.63;;
14611;SDS011;7392;52.078;11.650;2023-09-12T05:55:38;4.53;;;4.13;;
14611;SDS011;7392;52.078;11.650;2023-09-12T05:58:06;4.17;;;3.77;;
14611;SDS011;7392;52.078;11.650;2023-09-12T06:00:36;4.47;;;4.03;;
14611;SDS011;7392;52.078;11.650;2023-09-12T06:03:04;4.20;;;3.80;;
14611;SDS011;7392;52.078;11.650;2023-09-12T06:05:32;4.97;;;4.50;;
14611;SDS011;7392;52.078;11.650;2023-09-12T06:08:00;5.63;;;5.00;;
14611;SDS011;7392;52.078;11.650;2023-09-12T06:10:28;4.67;;;4.23;;
14611;SDS011;7392;52.078;11.650;2023-09-12T06:12:56;4.60;;;4.20;;
14611;SDS011;7392;52.078;11.650;2023-09-12T06:15:24;4.70;;;4.30;;
14611;SDS011;7392;52.078;11.650;2023-09-12T06:17:53;4.93;;;4.53;;
14611;SDS011;7392;52.078;11.650;2023-09-12T06:20:21;4.50;;;4.10;;
14611;SDS011;7392;52.078;11.650;2023-09-12T06:22:49;4.30;;;3.90;;
14611;SDS011;7392;52.078;11.650;2023-09-12T06:25:17;3.87;;;3.57;;
14611;SDS011;7392;52.078;11.650;2023-09-12T06:27:45;4.70;;;4.20;;
14611;SDS011;7392;52.078;11.650;2023-09-12T06:30:14;4.67;;;4.27;;
14611;SDS011;7392;52.078;11.650;2023-09-12T06:32:41;4.80;;;4.30;;
14611;SDS011;7392;52.078;11.650;2023-09-12T06:35:10;4.80;;;4.40;;
14611;SDS011;7392;52.078;11.650;2023-09-12T06:37:38;4.90;;;4.50;;
14611;SDS011;7392;52.078;11.650;2023-09-12T06:40:07;5.00;;;4.60;;
14611;SDS011;7392;52.078;11.650;2023-09-12T06:42:35;4.43;;;4.07;;
14611;SDS011;7392;52.078;11.650;2023-09-12T06:45:03;5.10;;;4.70;;
14611;SDS011;7392;52.078;11.650;2023-09-12T06:47:31;6.17;;;4.97;;
14611;SDS011;7392;52.078;11.650;2023-09-12T06:49:59;5.03;;;4.63;;
14611;SDS011;7392;52.078;11.650;2023-09-12T06:52:28;4.70;;;4.30;;
14611;SDS011;7392;52.078;11.650;2023-09-12T06:54:56;5.17;;;4.67;;
14611;SDS011;7392;52.078;11.650;2023-09-12T06:57:24;5.40;;;4.90;;
14611;SDS011;7392;52.078;11.650;2023-09-12T06:59:52;5.90;;;5.33;;
14611;SDS011;7392;52.078;11.650;2023-09-12T07:02:20;5.17;;;4.73;;
14611;SDS011;7392;52.078;11.650;2023-09-12T07:04:48;6.77;;;4.40;;
14611;SDS011;7392;52.078;11.650;2023-09-12T07:07:16;4.97;;;4.57;;
14611;SDS011;7392;52.078;11.650;2023-09-12T07:09:45;4.70;;;4.30;;
14611;SDS011;7392;52.078;11.650;2023-09-12T07:12:13;4.67;;;4.23;;
14611;SDS011;7392;52.078;11.650;2023-09-12T07:14:41;4.67;;;4.27;;
14611;SDS011;7392;52.078;11.650;2023-09-12T07:17:09;5.10;;;4.47;;
14611;SDS011;7392;52.078;11.650;2023-09-12T07:19:37;5.25;;;4.75;;
14611;SDS011;7392;52.078;11.650;2023-09-12T07:22:04;4.63;;;4.23;;
14611;SDS011;7392;52.078;11.650;2023-09-12T07:24:32;4.60;;;4.30;;
14611;SDS011;7392;52.078;11.650;2023-09-12T07:27:01;4.10;;;3.80;;
14611;SDS011;7392;52.078;11.650;2023-09-12T07:29:29;3.90;;;3.60;;
14611;SDS011;7392;52.078;11.650;2023-09-12T07:31:57;4.17;;;3.87;;
14611;SDS011;7392;52.078;11.650;2023-09-12T07:34:26;4.03;;;3.73;;
14611;SDS011;7392;52.078;11.650;2023-09-12T07:36:54;4.30;;;3.53;;
14611;SDS011;7392;52.078;11.650;2023-09-12T07:39:22;4.40;;;4.10;;
14611;SDS011;7392;52.078;11.650;2023-09-12T07:41:50;4.10;;;3.77;;
14611;SDS011;7392;52.078;11.650;2023-09-12T07:44:19;4.70;;;4.30;;
14611;SDS011;7392;52.078;11.650;2023-09-12T07:46:47;5.70;;;4.43;;
14611;SDS011;7392;52.078;11.650;2023-09-12T07:49:15;4.78;;;4.30;;
14611;SDS011;7392;52.078;11.650;2023-09-12T07:51:43;4.80;;;4.40;;
14611;SDS011;7392;52.078;11.650;2023-09-12T07:54:10;5.30;;;4.80;;
14611;SDS011;7392;52.078;11.650;2023-09-12T07:56:41;6.03;;;4.95;;
14611;SDS011;7392;52.078;11.650;2023-09-12T07:59:09;8.43;;;5.00;;
14611;SDS011;7392;52.078;11.650;2023-09-12T08:01:39;4.72;;;4.32;;
14611;SDS011;7392;52.078;11.650;2023-09-12T08:04:07;4.80;;;4.30;;
14611;SDS011;7392;52.078;11.650;2023-09-12T08:06:35;5.03;;;4.63;;
14611;SDS011;7392;52.078;11.650;2023-09-12T08:09:23;6.35;;;4.50;;
14611;SDS011;7392;52.078;11.650;2023-09-12T08:11:50;5.13;;;4.65;;
14611;SDS011;7392;52.078;11.650;2023-09-12T08:14:18;5.10;;;4.60;;
14611;SDS011;7392;52.078;11.650;2023-09-12T08:16:49;4.68;;;4.20;;
14611;SDS011;7392;52.078;11.650;2023-09-12T08:19:16;5.10;;;4.60;;
14611;SDS011;7392;52.078;11.650;2023-09-12T08:21:45;4.72;;;4.32;;
14611;SDS011;7392;52.078;11.650;2023-09-12T08:24:13;3.97;;;3.58;;
14611;SDS011;7392;52.078;11.650;2023-09-12T08:26:41;4.82;;;3.65;;
14611;SDS011;7392;52.078;11.650;2023-09-12T08:29:11;3.72;;;3.35;;
14611;SDS011;7392;52.078;11.650;2023-09-12T08:31:39;3.13;;;2.85;;
14611;SDS011;7392;52.078;11.650;2023-09-12T08:34:08;3.28;;;3.08;;
14611;SDS011;7392;52.078;11.650;2023-09-12T08:36:36;2.85;;;2.65;;
14611;SDS011;7392;52.078;11.650;2023-09-12T08:39:03;3.38;;;3.10;;
14611;SDS011;7392;52.078;11.650;2023-09-12T08:41:34;3.15;;;2.80;;
14611;SDS011;7392;52.078;11.650;2023-09-12T08:44:02;2.78;;;2.58;;
14611;SDS011;7392;52.078;11.650;2023-09-12T08:46:32;2.78;;;2.58;;
14611;SDS011;7392;52.078;11.650;2023-09-12T08:49:00;2.83;;;2.60;;
14611;SDS011;7392;52.078;11.650;2023-09-12T08:51:30;2.70;;;2.50;;
14611;SDS011;7392;52.078;11.650;2023-09-12T08:53:58;2.42;;;2.22;;
14611;SDS011;7392;52.078;11.650;2023-09-12T08:56:27;3.13;;;2.33;;
14611;SDS011;7392;52.078;11.650;2023-09-12T08:58:55;2.50;;;2.30;;
14611;SDS011;7392;52.078;11.650;2023-09-12T09:01:23;2.75;;;2.55;;
14611;SDS011;7392;52.078;11.650;2023-09-12T09:03:54;2.53;;;2.33;;
14611;SDS011;7392;52.078;11.650;2023-09-12T09:06:23;2.67;;;2.47;;
14611;SDS011;7392;52.078;11.650;2023-09-12T09:08:55;3.63;;;2.50;;
14611;SDS011;7392;52.078;11.650;2023-09-12T09:11:23;2.08;;;1.98;;
14611;SDS011;7392;52.078;11.650;2023-09-12T09:13:54;3.20;;;2.38;;
14611;SDS011;7392;52.078;11.650;2023-09-12T09:16:22;2.33;;;2.13;;
14611;SDS011;7392;52.078;11.650;2023-09-12T09:18:54;2.53;;;2.33;;
14611;SDS011;7392;52.078;11.650;2023-09-12T09:21:24;2.33;;;2.20;;
14611;SDS011;7392;52.078;11.650;2023-09-12T09:23:55;2.08;;;1.98;;
14611;SDS011;7392;52.078;11.650;2023-09-12T09:26:25;1.92;;;1.83;;
14611;SDS011;7392;52.078;11.650;2023-09-12T09:29:08;2.28;;;2.08;;
14611;SDS011;7392;52.078;11.650;2023-09-12T09:31:39;2.25;;;2.05;;
14611;SDS011;7392;52.078;11.650;2023-09-12T09:34:12;1.98;;;1.88;;
14611;SDS011;7392;52.078;11.650;2023-09-12T09:36:47;2.17;;;1.98;;
14611;SDS011;7392;52.078;11.650;2023-09-12T09:39:17;2.20;;;2.00;;
14611;SDS011;7392;52.078;11.650;2023-09-12T09:41:46;2.00;;;1.90;;
14611;SDS011;7392;52.078;11.650;2023-09-12T09:44:15;3.22;;;1.92;;
14611;SDS011;7392;52.078;11.650;2023-09-12T09:46:43;1.92;;;1.83;;
14611;SDS011;7392;52.078;11.650;2023-09-12T09:49:11;2.45;;;2.17;;
14611;SDS011;7392;52.078;11.650;2023-09-12T09:51:42;1.90;;;1.80;;
14611;SDS011;7392;52.078;11.650;2023-09-12T09:54:12;1.98;;;1.88;;
14611;SDS011;7392;52.078;11.650;2023-09-12T09:56:46;3.75;;;2.05;;
14611;SDS011;7392;52.078;11.650;2023-09-12T09:59:15;2.67;;;1.83;;
14611;SDS011;7392;52.078;11.650;2023-09-12T10:01:43;1.88;;;1.77;;
14611;SDS011;7392;52.078;11.650;2023-09-12T10:04:12;2.13;;;1.92;;
14611;SDS011;7392;52.078;11.650;2023-09-12T10:06:42;2.00;;;1.90;;
14611;SDS011;7392;52.078;11.650;2023-09-12T10:09:12;2.00;;;1.90;;
14611;SDS011;7392;52.078;11.650;2023-09-12T10:11:42;2.00;;;1.75;;
14611;SDS011;7392;52.078;11.650;2023-09-12T10:14:15;2.17;;;1.98;;
14611;SDS011;7392;52.078;11.650;2023-09-12T10:16:46;1.80;;;1.70;;
14611;SDS011;7392;52.078;11.650;2023-09-12T10:19:16;1.98;;;1.88;;
14611;SDS011;7392;52.078;11.650;2023-09-12T10:21:48;1.88;;;1.77;;
14611;SDS011;7392;52.078;11.650;2023-09-12T10:24:21;1.70;;;1.60;;
14611;SDS011;7392;52.078;11.650;2023-09-12T10:26:53;1.67;;;1.58;;
14611;SDS011;7392;52.078;11.650;2023-09-12T10:29:23;1.60;;;1.48;;
14611;SDS011;7392;52.078;11.650;2023-09-12T10:31:51;1.48;;;1.38;;
14611;SDS011;7392;52.078;11.650;2023-09-12T10:34:19;1.60;;;1.50;;
14611;SDS011;7392;52.078;11.650;2023-09-12T10:36:50;1.50;;;1.40;;
14611;SDS011;7392;52.078;11.650;2023-09-12T10:39:19;1.65;;;1.55;;
14611;SDS011;7392;52.078;11.650;2023-09-12T10:41:48;1.50;;;1.40;;
14611;SDS011;7392;52.078;11.650;2023-09-12T10:44:19;1.40;;;1.30;;
14611;SDS011;7392;52.078;11.650;2023-09-12T10:46:53;1.50;;;1.40;;
14611;SDS011;7392;52.078;11.650;2023-09-12T10:49:21;1.20;;;1.10;;
14611;SDS011;7392;52.078;11.650;2023-09-12T10:51:53;1.30;;;1.20;;
14611;SDS011;7392;52.078;11.650;2023-09-12T10:54:23;1.30;;;1.20;;
14611;SDS011;7392;52.078;11.650;2023-09-12T10:57:04;0.95;;;0.95;;
14611;SDS011;7392;52.078;11.650;2023-09-12T10:59:32;1.35;;;1.25;;
14611;SDS011;7392;52.078;11.650;2023-09-12T11:05:02;1.25;;;1.15;;
14611;SDS011;7392;52.078;11.650;2023-09-12T11:07:32;1.27;;;1.17;;
14611;SDS011;7392;52.078;11.650;2023-09-12T11:10:17;1.35;;;1.25;;
14611;SDS011;7392;52.078;11.650;2023-09-12T11:12:47;1.60;;;1.50;;
14611;SDS011;7392;52.078;11.650;2023-09-12T11:15:16;1.52;;;1.42;;
14611;SDS011;7392;52.078;11.650;2023-09-12T11:17:47;1.60;;;1.50;;
14611;SDS011;7392;52.078;11.650;2023-09-12T11:20:16;1.40;;;1.30;;
14611;SDS011;7392;52.078;11.650;2023-09-12T11:22:46;1.67;;;1.58;;
14611;SDS011;7392;52.078;11.650;2023-09-12T11:25:18;1.60;;;1.50;;
14611;SDS011;7392;52.078;11.650;2023-09-12T11:28:04;1.70;;;1.60;;
14611;SDS011;7392;52.078;11.650;2023-09-12T11:30:32;1.77;;;1.67;;
14611;SDS011;7392;52.078;11.650;2023-09-12T11:33:04;1.90;;;1.60;;
14611;SDS011;7392;52.078;11.650;2023-09-12T11:35:35;1.75;;;1.63;;
14611;SDS011;7392;52.078;11.650;2023-09-12T11:38:09;1.77;;;1.67;;
14611;SDS011;7392;52.078;11.650;2023-09-12T11:40:44;1.70;;;1.60;;
14611;SDS011;7392;52.078;11.650;2023-09-12T11:43:22;1.70;;;1.60;;
14611;SDS011;7392;52.078;11.650;2023-09-12T11:45:51;2.53;;;1.58;;
14611;SDS011;7392;52.078;11.650;2023-09-12T11:48:23;1.60;;;1.50;;
14611;SDS011;7392;52.078;11.650;2023-09-12T11:50:52;1.98;;;1.58;;
14611;SDS011;7392;52.078;11.650;2023-09-12T11:53:21;1.95;;;1.70;;
14611;SDS011;7392;52.078;11.650;2023-09-12T11:55:53;1.70;;;1.60;;
14611;SDS011;7392;52.078;11.650;2023-09-12T11:58:24;1.70;;;1.60;;
14611;SDS011;7392;52.078;11.650;2023-09-12T12:00:54;1.85;;;1.75;;
14611;SDS011;7392;52.078;11.650;2023-09-12T12:03:24;1.80;;;1.70;;
14611;SDS011;7392;52.078;11.650;2023-09-12T12:05:54;1.95;;;1.85;;
14611;SDS011;7392;52.078;11.650;2023-09-12T12:08:23;1.65;;;1.50;;
14611;SDS011;7392;52.078;11.650;2023-09-12T12:10:54;1.45;;;1.35;;
14611;SDS011;7392;52.078;11.650;2023-09-12T12:13:22;2.05;;;1.60;;
14611;SDS011;7392;52.078;11.650;2023-09-12T12:15:50;1.67;;;1.58;;
14611;SDS011;7392;52.078;11.650;2023-09-12T12:18:18;1.70;;;1.60;;
14611;SDS011;7392;52.078;11.650;2023-09-12T12:20:48;2.13;;;1.65;;
14611;SDS011;7392;52.078;11.650;2023-09-12T12:23:15;1.73;;;1.60;;
14611;SDS011;7392;52.078;11.650;2023-09-12T12:25:43;1.70;;;1.60;;
14611;SDS011;7392;52.078;11.650;2023-09-12T12:28:11;1.77;;;1.67;;
14611;SDS011;7392;52.078;11.650;2023-09-12T12:30:39;1.75;;;1.50;;
14611;SDS011;7392;52.078;11.650;2023-09-12T12:33:07;1.88;;;1.77;;
14611;SDS011;7392;52.078;11.650;2023-09-12T12:36:01;1.70;;;1.60;;
14611;SDS011;7392;52.078;11.650;2023-09-12T12:38:31;1.60;;;1.50;;
14611;SDS011;7392;52.078;11.650;2023-09-12T12:41:02;1.50;;;1.40;;
14611;SDS011;7392;52.078;11.650;2023-09-12T12:43:30;1.58;;;1.48;;
14611;SDS011;7392;52.078;11.650;2023-09-12T12:45:58;1.60;;;1.50;;
14611;SDS011;7392;52.078;11.650;2023-09-12T12:48:30;1.92;;;1.55;;
14611;SDS011;7392;52.078;11.650;2023-09-12T12:50:58;3.05;;;1.77;;
14611;SDS011;7392;52.078;11.650;2023-09-12T12:53:39;2.17;;;1.98;;
14611;SDS011;7392;52.078;11.650;2023-09-12T12:56:19;2.03;;;1.83;;
14611;SDS011;7392;52.078;11.650;2023-09-12T12:58:49;2.38;;;2.17;;
14611;SDS011;7392;52.078;11.650;2023-09-12T13:01:18;1.77;;;1.67;;
14611;SDS011;7392;52.078;11.650;2023-09-12T13:03:46;1.83;;;1.70;;
14611;SDS011;7392;52.078;11.650;2023-09-12T13:06:18;1.80;;;1.70;;
14611;SDS011;7392;52.078;11.650;2023-09-12T13:08:46;2.20;;;2.00;;
14611;SDS011;7392;52.078;11.650;2023-09-12T13:11:15;2.40;;;1.98;;
14611;SDS011;7392;52.078;11.650;2023-09-12T13:13:44;1.88;;;1.77;;
14611;SDS011;7392;52.078;11.650;2023-09-12T13:16:14;1.88;;;1.70;;
14611;SDS011;7392;52.078;11.650;2023-09-12T13:18:43;1.60;;;1.50;;
14611;SDS011;7392;52.078;11.650;2023-09-12T13:21:12;2.92;;;1.65;;
14611;SDS011;7392;52.078;11.650;2023-09-12T13:23:41;1.98;;;1.50;;
14611;SDS011;7392;52.078;11.650;2023-09-12T13:26:09;1.70;;;1.60;;
14611;SDS011;7392;52.078;11.650;2023-09-12T13:28:37;1.60;;;1.50;;
14611;SDS011;7392;52.078;11.650;2023-09-12T13:31:05;2.03;;;1.60;;
14611;SDS011;7392;52.078;11.650;2023-09-12T13:33:33;1.90;;;1.80;;
14611;SDS011;7392;52.078;11.650;2023-09-12T13:36:01;1.50;;;1.40;;
14611;SDS011;7392;52.078;11.650;2023-09-12T13:38:29;1.48;;;1.38;;
14611;SDS011;7392;52.078;11.650;2023-09-12T13:40:58;1.55;;;1.27;;
14611;SDS011;7392;52.078;11.650;2023-09-12T13:43:25;1.35;;;1.23;;
14611;SDS011;7392;52.078;11.650;2023-09-12T13:45:54;1.85;;;1.25;;
14611;SDS011;7392;52.078;11.650;2023-09-12T13:48:22;1.52;;;1.33;;
14611;SDS011;7392;52.078;11.650;2023-09-12T13:50:50;1.40;;;1.00;;
14611;SDS011;7392;52.078;11.650;2023-09-12T13:53:18;1.67;;;1.17;;
14611;SDS011;7392;52.078;11.650;2023-09-12T13:55:46;1.20;;;1.10;;
14611;SDS011;7392;52.078;11.650;2023-09-12T13:58:15;1.30;;;1.20;;
14611;SDS011;7392;52.078;11.650;2023-09-12T14:00:44;1.27;;;1.10;;
14611;SDS011;7392;52.078;11.650;2023-09-12T14:03:12;1.13;;;0.98;;
14611;SDS011;7392;52.078;11.650;2023-09-12T14:05:40;1.40;;;1.30;;
14611;SDS011;7392;52.078;11.650;2023-09-12T14:08:09;1.00;;;0.90;;
14611;SDS011;7392;52.078;11.650;2023-09-12T14:10:37;1.10;;;1.02;;
14611;SDS011;7392;52.078;11.650;2023-09-12T14:13:07;1.40;;;1.20;;
14611;SDS011;7392;52.078;11.650;2023-09-12T14:15:48;1.10;;;1.00;;
14611;SDS011;7392;52.078;11.650;2023-09-12T14:18:18;2.25;;;1.23;;
14611;SDS011;7392;52.078;11.650;2023-09-12T14:20:48;0.88;;;0.82;;
14611;SDS011;7392;52.078;11.650;2023-09-12T14:23:19;1.20;;;0.90;;
14611;SDS011;7392;52.078;11.650;2023-09-12T14:25:48;1.00;;;0.90;;
14611;SDS011;7392;52.078;11.650;2023-09-12T14:28:16;1.15;;;1.08;;
14611;SDS011;7392;52.078;11.650;2023-09-12T14:30:44;1.20;;;1.10;;
14611;SDS011;7392;52.078;11.650;2023-09-12T14:33:14;0.90;;;0.90;;
14611;SDS011;7392;52.078;11.650;2023-09-12T14:35:44;1.10;;;1.00;;
14611;SDS011;7392;52.078;11.650;2023-09-12T14:38:12;0.90;;;0.90;;
14611;SDS011;7392;52.078;11.650;2023-09-12T14:40:40;0.90;;;0.90;;
14611;SDS011;7392;52.078;11.650;2023-09-12T14:43:11;1.00;;;1.00;;
14611;SDS011;7392;52.078;11.650;2023-09-12T14:45:39;1.10;;;1.00;;
14611;SDS011;7392;52.078;11.650;2023-09-12T14:48:08;1.10;;;1.00;;
14611;SDS011;7392;52.078;11.650;2023-09-12T14:50:37;0.98;;;0.98;;
14611;SDS011;7392;52.078;11.650;2023-09-12T14:53:10;0.90;;;0.90;;
14611;SDS011;7392;52.078;11.650;2023-09-12T14:55:39;1.30;;;1.00;;
14611;SDS011;7392;52.078;11.650;2023-09-12T14:58:07;1.58;;;1.08;;
14611;SDS011;7392;52.078;11.650;2023-09-12T15:00:35;0.90;;;0.90;;
14611;SDS011;7392;52.078;11.650;2023-09-12T15:03:04;0.90;;;0.90;;
14611;SDS011;7392;52.078;11.650;2023-09-12T15:05:32;1.17;;;1.08;;
14611;SDS011;7392;52.078;11.650;2023-09-12T15:08:01;0.88;;;0.77;;